createdAt,value
2022-09-18T00:00:10.484Z,8.79
2022-09-18T00:02:37.158Z,8.16
2022-09-18T00:05:05.390Z,8.73
2022-09-18T00:07:32.032Z,8.86
2022-09-18T00:09:58.595Z,8.79
2022-09-18T00:12:25.191Z,8.80
2022-09-18T00:14:51.975Z,8.91
2022-09-18T00:17:18.546Z,8.78
2022-09-18T00:19:45.108Z,8.53
2022-09-18T00:22:11.853Z,8.55
2022-09-18T00:24:38.501Z,8.50
2022-09-18T00:27:05.337Z,8.73
2022-09-18T00:29:31.992Z,7.50
2022-09-18T00:31:59.919Z,8.71
2022-09-18T00:34:26.542Z,8.67
2022-09-18T00:36:53.105Z,8.35
2022-09-18T00:39:19.899Z,8.32
2022-09-18T00:41:46.454Z,7.17
2022-09-18T00:44:22.108Z,8.77
2022-09-18T00:46:48.740Z,8.71
2022-09-18T00:49:19.103Z,8.26
2022-09-18T00:51:46.326Z,8.45
2022-09-18T00:54:23.399Z,8.29
2022-09-18T00:56:50.724Z,8.53
2022-09-18T00:59:20.156Z,8.01
2022-09-18T01:01:46.745Z,8.24
2022-09-18T01:04:14.112Z,7.69
2022-09-18T01:06:46.848Z,8.22
2022-09-18T01:09:28.819Z,8.36
2022-09-18T01:12:10.788Z,8.33
2022-09-18T01:14:43.056Z,7.82
2022-09-18T01:17:12.529Z,8.13
2022-09-18T01:20:10.062Z,8.06
2022-09-18T01:22:51.741Z,8.01
2022-09-18T01:25:47.159Z,7.50
2022-09-18T01:28:23.720Z,8.02
2022-09-18T01:30:51.047Z,7.55
2022-09-18T01:33:31.579Z,7.82
2022-09-18T01:36:00.081Z,7.36
2022-09-18T01:38:33.458Z,7.98
2022-09-18T01:41:06.263Z,7.00
2022-09-18T01:43:32.956Z,6.33
2022-09-18T01:46:03.944Z,7.70
2022-09-18T01:48:51.639Z,7.70
2022-09-18T01:51:20.630Z,7.94
2022-09-18T01:54:11.027Z,7.80
2022-09-18T01:56:43.594Z,7.55
2022-09-18T01:59:12.398Z,7.47
2022-09-18T02:01:39.217Z,7.48
2022-09-18T02:04:11.563Z,6.51
2022-09-18T02:06:39.868Z,7.75
2022-09-18T02:09:06.479Z,7.21
2022-09-18T02:11:33.380Z,6.92
2022-09-18T02:14:14.785Z,7.22
2022-09-18T02:16:46.025Z,7.01
2022-09-18T02:19:28.240Z,6.83
2022-09-18T02:21:54.866Z,7.13
2022-09-18T02:24:22.296Z,6.68
2022-09-18T02:26:48.851Z,6.75
2022-09-18T02:29:15.735Z,7.20
2022-09-18T02:31:42.425Z,7.30
2022-09-18T02:34:09.554Z,7.35
2022-09-18T02:36:59.321Z,7.20
2022-09-18T02:39:44.397Z,7.54
2022-09-18T02:42:22.936Z,7.53
2022-09-18T02:45:03.157Z,7.57
2022-09-18T02:48:00.664Z,7.61
2022-09-18T02:50:41.594Z,7.50
2022-09-18T02:53:10.884Z,7.44
2022-09-18T02:55:42.999Z,7.64
2022-09-18T02:58:20.192Z,7.01
2022-09-18T03:00:46.806Z,7.58
2022-09-18T03:03:14.526Z,7.49
2022-09-18T03:05:41.090Z,7.33
2022-09-18T03:08:07.705Z,7.30
2022-09-18T03:10:34.287Z,7.46
2022-09-18T03:13:01.394Z,7.36
2022-09-18T03:15:28.047Z,7.40
2022-09-18T03:17:54.615Z,7.51
2022-09-18T03:20:21.205Z,7.53
2022-09-18T03:22:47.829Z,7.56
2022-09-18T03:25:15.431Z,7.20
2022-09-18T03:27:42.995Z,7.41
2022-09-18T03:30:09.994Z,6.26
2022-09-18T03:32:36.601Z,7.50
2022-09-18T03:35:03.184Z,7.14
2022-09-18T03:37:29.739Z,7.00
2022-09-18T03:39:56.600Z,7.52
2022-09-18T03:42:23.179Z,7.72
2022-09-18T03:44:49.759Z,7.55
2022-09-18T03:47:16.360Z,7.57
2022-09-18T03:49:42.899Z,7.52
2022-09-18T03:52:09.469Z,7.37
2022-09-18T03:54:36.035Z,7.45
2022-09-18T03:57:02.606Z,5.85
2022-09-18T03:59:29.193Z,7.57
2022-09-18T04:01:55.928Z,7.63
2022-09-18T04:04:22.655Z,7.52
2022-09-18T04:06:49.232Z,7.59
2022-09-18T04:09:20.838Z,7.83
2022-09-18T04:11:47.406Z,7.52
2022-09-18T04:14:14.825Z,7.53
2022-09-18T04:16:41.403Z,7.77
2022-09-18T04:19:08.004Z,7.51
2022-09-18T04:21:34.625Z,7.63
2022-09-18T04:24:01.427Z,7.59
2022-09-18T04:26:28.081Z,7.63
2022-09-18T04:28:54.726Z,6.61
2022-09-18T04:31:21.337Z,7.79
2022-09-18T04:33:48.421Z,7.66
2022-09-18T04:36:15.294Z,7.60
2022-09-18T04:38:41.854Z,7.54
2022-09-18T04:41:08.634Z,7.40
2022-09-18T04:43:35.204Z,7.17
2022-09-18T04:46:02.473Z,6.83
2022-09-18T04:48:29.127Z,7.18
2022-09-18T04:50:55.723Z,7.40
2022-09-18T04:53:22.351Z,7.14
2022-09-18T04:55:48.992Z,7.56
2022-09-18T04:58:16.044Z,7.36
2022-09-18T05:00:56.125Z,7.84
2022-09-18T05:03:22.783Z,7.61
2022-09-18T05:05:50.366Z,7.59
2022-09-18T05:08:17.164Z,7.50
2022-09-18T05:10:43.876Z,7.55
2022-09-18T05:13:10.563Z,7.39
2022-09-18T05:15:37.200Z,7.68
2022-09-18T05:18:11.365Z,7.64
2022-09-18T05:20:38.213Z,7.26
2022-09-18T05:23:04.804Z,7.78
2022-09-18T05:25:31.662Z,7.76
2022-09-18T05:27:59.719Z,7.30
2022-09-18T05:30:26.746Z,7.56
2022-09-18T05:33:00.544Z,6.95
2022-09-18T05:35:28.463Z,7.42
2022-09-18T05:37:55.225Z,7.71
2022-09-18T05:40:25.603Z,7.57
2022-09-18T05:42:55.653Z,7.66
2022-09-18T05:45:22.463Z,7.65
2022-09-18T05:47:59.323Z,6.59
2022-09-18T05:50:26.747Z,7.75
2022-09-18T05:53:15.474Z,7.74
2022-09-18T05:55:42.083Z,7.41
2022-09-18T05:58:12.256Z,7.53
2022-09-18T06:00:38.832Z,5.96
2022-09-18T06:03:07.110Z,6.80
2022-09-18T06:05:34.732Z,7.44
2022-09-18T06:08:02.041Z,7.25
2022-09-18T06:10:29.344Z,7.00
2022-09-18T06:13:05.765Z,6.77
2022-09-18T06:15:32.772Z,6.82
2022-09-18T06:17:59.379Z,7.08
2022-09-18T06:20:26.114Z,7.75
2022-09-18T06:22:52.745Z,7.32
2022-09-18T06:25:21.937Z,7.63
2022-09-18T06:27:53.586Z,7.75
2022-09-18T06:30:20.496Z,7.53
2022-09-18T06:32:47.148Z,7.27
2022-09-18T06:35:13.844Z,7.28
2022-09-18T06:37:40.441Z,7.93
2022-09-18T06:40:07.282Z,7.62
2022-09-18T06:42:33.999Z,7.73
2022-09-18T06:45:00.580Z,7.78
2022-09-18T06:47:27.161Z,8.31
2022-09-18T06:49:53.803Z,8.07
2022-09-18T06:52:20.402Z,8.32
2022-09-18T06:54:47.037Z,7.87
2022-09-18T06:57:13.638Z,8.15
2022-09-18T06:59:40.276Z,8.23
2022-09-18T07:02:15.034Z,7.61
2022-09-18T07:04:44.087Z,8.15
2022-09-18T07:07:10.682Z,8.10
2022-09-18T07:09:37.272Z,8.42
2022-09-18T07:12:03.978Z,8.27
2022-09-18T07:14:30.627Z,8.27
2022-09-18T07:16:57.214Z,7.89
2022-09-18T07:19:23.960Z,8.37
2022-09-18T07:21:52.143Z,7.97
2022-09-18T07:24:18.781Z,8.23
2022-09-18T07:26:45.375Z,8.15
2022-09-18T07:29:11.941Z,7.00
2022-09-18T07:31:38.633Z,8.28
2022-09-18T07:34:07.301Z,6.59
2022-09-18T07:36:33.943Z,7.81
2022-09-18T07:39:00.690Z,8.09
2022-09-18T07:41:27.502Z,8.61
2022-09-18T07:43:54.082Z,8.52
2022-09-18T07:46:20.734Z,8.62
2022-09-18T07:48:47.374Z,8.17
2022-09-18T07:51:14.250Z,7.41
2022-09-18T07:53:41.282Z,8.24
2022-09-18T07:56:09.381Z,8.69
2022-09-18T07:58:36.310Z,8.77
2022-09-18T08:01:03.400Z,7.29
2022-09-18T08:03:30.227Z,8.45
2022-09-18T08:05:56.874Z,8.46
2022-09-18T08:08:23.536Z,8.63
2022-09-18T08:10:50.140Z,7.36
2022-09-18T08:13:16.709Z,8.58
2022-09-18T08:15:43.320Z,8.17
2022-09-18T08:18:11.428Z,8.25
2022-09-18T08:20:38.036Z,8.33
2022-09-18T08:23:06.232Z,8.40
2022-09-18T08:25:33.012Z,8.22
2022-09-18T08:28:01.712Z,8.35
2022-09-18T08:30:28.516Z,8.23
2022-09-18T08:33:02.936Z,8.13
2022-09-18T08:35:30.686Z,8.39
2022-09-18T08:37:58.116Z,8.19
2022-09-18T08:40:39.440Z,8.60
2022-09-18T08:43:21.844Z,8.38
2022-09-18T08:46:05.303Z,8.11
2022-09-18T08:48:35.196Z,8.32
2022-09-18T08:51:19.360Z,8.72
2022-09-18T08:53:47.872Z,8.56
2022-09-18T08:56:20.949Z,8.36
2022-09-18T08:58:52.568Z,8.71
2022-09-18T09:01:19.265Z,8.23
2022-09-18T09:04:07.462Z,8.27
2022-09-18T09:06:46.097Z,8.88
2022-09-18T09:09:22.729Z,9.00
2022-09-18T09:12:02.126Z,9.08
2022-09-18T09:14:58.148Z,8.71
2022-09-18T09:17:40.067Z,9.14
2022-09-18T09:20:12.556Z,9.17
2022-09-18T09:23:05.613Z,9.13
2022-09-18T09:25:51.350Z,9.08
2022-09-18T09:28:23.731Z,8.62
2022-09-18T09:30:54.702Z,8.45
2022-09-18T09:33:24.798Z,8.94
2022-09-18T09:35:53.772Z,8.87
2022-09-18T09:38:32.345Z,8.89
2022-09-18T09:41:01.711Z,8.72
2022-09-18T09:43:32.508Z,8.57
2022-09-18T09:46:00.892Z,8.58
2022-09-18T09:48:30.717Z,8.76
2022-09-18T09:51:07.849Z,8.59
2022-09-18T09:53:34.402Z,7.50
2022-09-18T09:56:28.927Z,8.82
2022-09-18T09:59:34.449Z,8.82
2022-09-18T10:02:25.798Z,8.85
2022-09-18T10:05:10.973Z,8.82
2022-09-18T10:07:41.538Z,8.74
2022-09-18T10:10:18.938Z,8.89
2022-09-18T10:13:02.061Z,8.94
2022-09-18T10:15:40.621Z,8.91
2022-09-18T10:18:39.495Z,8.67
2022-09-18T10:21:09.423Z,8.12
2022-09-18T10:24:20.528Z,8.81
2022-09-18T10:26:50.334Z,8.41
2022-09-18T10:29:17.648Z,8.22
2022-09-18T10:31:49.436Z,8.63
2022-09-18T10:34:42.574Z,8.74
2022-09-18T10:37:16.077Z,8.61
2022-09-18T10:39:51.446Z,8.38
2022-09-18T10:42:22.198Z,8.19
2022-09-18T10:45:13.073Z,8.32
2022-09-18T10:47:39.750Z,7.78
2022-09-18T10:50:06.411Z,8.58
2022-09-18T10:52:42.972Z,8.44
2022-09-18T10:55:12.935Z,8.61
2022-09-18T10:57:43.745Z,8.63
2022-09-18T11:00:13.764Z,8.67
2022-09-18T11:02:57.197Z,8.54
2022-09-18T11:05:31.532Z,7.85
2022-09-18T11:07:59.680Z,8.22
2022-09-18T11:10:27.085Z,8.64
2022-09-18T11:12:56.044Z,8.73
2022-09-18T11:15:28.422Z,8.42
2022-09-18T11:17:56.554Z,8.58
2022-09-18T11:20:27.112Z,8.20
2022-09-18T11:23:34.185Z,8.67
2022-09-18T11:26:29.826Z,8.63
2022-09-18T11:29:02.431Z,8.57
2022-09-18T11:31:50.124Z,8.07
2022-09-18T11:34:32.094Z,8.27
2022-09-18T11:37:05.410Z,7.76
2022-09-18T11:39:43.410Z,8.25
2022-09-18T11:42:12.536Z,8.22
2022-09-18T11:44:39.530Z,6.88
2022-09-18T11:47:12.089Z,8.52
2022-09-18T11:49:44.689Z,8.42
2022-09-18T11:52:17.269Z,8.57
2022-09-18T11:54:48.995Z,8.58
2022-09-18T11:57:51.301Z,8.64
2022-09-18T12:00:22.329Z,8.37
2022-09-18T12:03:00.629Z,7.81
2022-09-18T12:05:33.152Z,8.81
2022-09-18T12:08:20.376Z,8.78
2022-09-18T12:10:48.699Z,8.38
2022-09-18T12:13:21.861Z,8.82
2022-09-18T12:16:07.701Z,8.35
2022-09-18T12:18:48.485Z,8.53
2022-09-18T12:21:17.098Z,8.41
2022-09-18T12:23:43.683Z,8.59
2022-09-18T12:26:40.532Z,8.84
2022-09-18T12:29:22.789Z,8.45
2022-09-18T12:32:20.060Z,8.51
2022-09-18T12:35:17.395Z,9.01
2022-09-18T12:37:45.636Z,9.05
2022-09-18T12:40:25.831Z,9.17
2022-09-18T12:43:26.407Z,9.33
2022-09-18T12:46:14.180Z,9.47
2022-09-18T12:48:45.824Z,9.67
2022-09-18T12:51:36.825Z,9.80
2022-09-18T12:54:17.930Z,9.64
2022-09-18T12:57:00.775Z,9.72
2022-09-18T12:59:49.851Z,10.27
2022-09-18T13:02:16.295Z,10.36
2022-09-18T13:04:46.845Z,10.19
2022-09-18T13:07:17.153Z,10.57
2022-09-18T13:10:00.977Z,9.48
2022-09-18T13:12:31.277Z,9.89
2022-09-18T13:15:01.801Z,9.86
2022-09-18T13:17:34.620Z,10.79
2022-09-18T13:20:11.327Z,11.14
2022-09-18T13:22:38.086Z,9.37
2022-09-18T13:25:19.064Z,11.31
2022-09-18T13:27:49.684Z,11.64
2022-09-18T13:30:31.964Z,11.55
2022-09-18T13:32:59.022Z,11.65
2022-09-18T13:35:30.684Z,11.60
2022-09-18T13:38:20.040Z,11.38
2022-09-18T13:40:56.659Z,11.65
2022-09-18T13:43:43.617Z,11.54
2022-09-18T13:46:31.797Z,10.40
2022-09-18T13:48:59.072Z,11.24
2022-09-18T13:51:32.748Z,11.37
2022-09-18T13:54:11.587Z,11.35
2022-09-18T13:57:03.165Z,11.41
2022-09-18T13:59:48.520Z,11.47
2022-09-18T14:02:25.273Z,11.45
2022-09-18T14:05:04.504Z,11.26
2022-09-18T14:07:31.017Z,11.45
2022-09-18T14:10:03.057Z,10.66
2022-09-18T14:12:33.402Z,11.00
2022-09-18T14:15:05.670Z,10.59
2022-09-18T14:17:33.123Z,11.35
2022-09-18T14:20:07.647Z,11.13
2022-09-18T14:22:38.029Z,10.28
2022-09-18T14:25:07.420Z,10.84
2022-09-18T14:27:56.063Z,11.37
2022-09-18T14:30:27.487Z,11.12
2022-09-18T14:33:16.459Z,11.55
2022-09-18T14:35:43.050Z,11.61
2022-09-18T14:38:36.701Z,11.61
2022-09-18T14:41:19.400Z,11.67
2022-09-18T14:43:56.985Z,11.60
2022-09-18T14:46:24.841Z,11.39
2022-09-18T14:48:51.686Z,9.72
2022-09-18T14:51:21.482Z,11.55
2022-09-18T14:53:52.777Z,11.18
2022-09-18T14:56:36.304Z,11.27
2022-09-18T14:59:07.320Z,11.28
2022-09-18T15:01:37.791Z,11.27
2022-09-18T15:04:05.171Z,10.59
2022-09-18T15:06:47.522Z,11.38
2022-09-18T15:09:15.329Z,10.88
2022-09-18T15:12:01.431Z,10.70
2022-09-18T15:14:41.821Z,11.24
2022-09-18T15:17:25.166Z,10.74
2022-09-18T15:19:59.903Z,10.68
2022-09-18T15:22:27.171Z,11.04
2022-09-18T15:24:53.836Z,11.09
2022-09-18T15:27:20.778Z,10.41
2022-09-18T15:30:09.698Z,11.35
2022-09-18T15:32:40.921Z,10.84
2022-09-18T15:35:08.968Z,10.93
2022-09-18T15:37:38.374Z,11.13
2022-09-18T15:40:06.686Z,11.32
2022-09-18T15:42:38.282Z,10.89
2022-09-18T15:45:07.949Z,11.27
2022-09-18T15:47:37.864Z,10.98
2022-09-18T15:50:10.566Z,11.12
2022-09-18T15:52:41.217Z,10.78
2022-09-18T15:55:10.883Z,11.03
2022-09-18T15:57:38.017Z,11.02
2022-09-18T16:00:11.738Z,10.65
2022-09-18T16:02:39.314Z,10.47
2022-09-18T16:05:13.717Z,10.01
2022-09-18T16:07:40.855Z,10.27
2022-09-18T16:10:35.177Z,10.81
2022-09-18T16:13:11.115Z,10.07
2022-09-18T16:15:37.799Z,10.22
2022-09-18T16:18:24.729Z,10.11
2022-09-18T16:20:51.462Z,10.64
2022-09-18T16:23:32.764Z,10.58
2022-09-18T16:26:06.041Z,10.22
2022-09-18T16:28:57.070Z,10.48
2022-09-18T16:31:25.596Z,9.79
2022-09-18T16:34:01.393Z,10.13
2022-09-18T16:36:35.393Z,9.56
2022-09-18T16:39:04.382Z,9.99
2022-09-18T16:41:31.076Z,9.77
2022-09-18T16:43:57.805Z,9.93
2022-09-18T16:46:27.149Z,9.95
2022-09-18T16:48:53.757Z,9.82
2022-09-18T16:51:21.963Z,9.79
2022-09-18T16:53:48.534Z,9.13
2022-09-18T16:56:16.196Z,9.12
2022-09-18T16:58:42.793Z,10.05
2022-09-18T17:01:09.896Z,8.59
2022-09-18T17:03:36.729Z,9.72
2022-09-18T17:06:03.427Z,9.72
2022-09-18T17:08:30.458Z,8.47
2022-09-18T17:10:57.265Z,9.46
2022-09-18T17:13:23.982Z,9.80
2022-09-18T17:15:50.651Z,9.52
2022-09-18T17:18:17.364Z,9.30
2022-09-18T17:20:45.885Z,9.31
2022-09-18T17:23:12.528Z,9.72
2022-09-18T17:25:39.104Z,9.33
2022-09-18T17:28:06.041Z,8.97
2022-09-18T17:30:32.614Z,8.90
2022-09-18T17:32:59.318Z,7.86
2022-09-18T17:35:26.507Z,9.39
2022-09-18T17:37:53.253Z,9.32
2022-09-18T17:40:19.922Z,9.14
2022-09-18T17:42:46.560Z,9.11
2022-09-18T17:45:13.226Z,8.95
2022-09-18T17:47:39.835Z,8.34
2022-09-18T17:50:07.529Z,8.93
2022-09-18T17:52:37.412Z,8.85
2022-09-18T17:55:04.302Z,8.61
2022-09-18T17:57:32.116Z,7.86
2022-09-18T17:59:58.703Z,9.27
2022-09-18T18:02:25.426Z,9.21
2022-09-18T18:04:52.088Z,8.37
2022-09-18T18:07:18.640Z,8.62
2022-09-18T18:09:45.190Z,9.00
2022-09-18T18:12:13.800Z,9.03
2022-09-18T18:14:41.649Z,8.93
2022-09-18T18:17:08.689Z,9.13
2022-09-18T18:19:35.322Z,8.91
2022-09-18T18:22:01.883Z,8.39
2022-09-18T18:24:29.793Z,8.41
2022-09-18T18:26:57.056Z,8.61
2022-09-18T18:29:24.323Z,8.34
2022-09-18T18:31:51.715Z,8.56
2022-09-18T18:34:22.336Z,8.11
2022-09-18T18:36:50.284Z,8.59
2022-09-18T18:39:16.952Z,7.88
2022-09-18T18:41:44.947Z,7.99
2022-09-18T18:44:21.848Z,8.20
2022-09-18T18:46:50.177Z,7.77
2022-09-18T18:49:17.096Z,8.14
2022-09-18T18:51:48.015Z,7.95
2022-09-18T18:54:16.047Z,7.86
2022-09-18T18:56:43.344Z,7.68
2022-09-18T18:59:15.035Z,7.49
2022-09-18T19:01:42.767Z,8.07
2022-09-18T19:04:11.699Z,7.99
2022-09-18T19:06:40.345Z,8.11
2022-09-18T19:09:19.790Z,7.85
2022-09-18T19:11:48.397Z,7.40
2022-09-18T19:14:19.774Z,7.84
2022-09-18T19:16:46.682Z,7.81
2022-09-18T19:19:13.974Z,7.85
2022-09-18T19:21:40.768Z,8.04
2022-09-18T19:24:08.493Z,8.24
2022-09-18T19:26:35.367Z,7.79
2022-09-18T19:29:05.584Z,7.69
2022-09-18T19:31:33.329Z,7.84
2022-09-18T19:33:59.988Z,6.91
2022-09-18T19:36:28.086Z,7.87
2022-09-18T19:38:59.169Z,7.55
2022-09-18T19:41:25.625Z,8.35
2022-09-18T19:43:52.432Z,7.89
2022-09-18T19:46:24.217Z,8.15
2022-09-18T19:48:51.397Z,8.06
2022-09-18T19:51:18.046Z,8.25
2022-09-18T19:53:44.690Z,8.04
2022-09-18T19:56:27.604Z,8.25
2022-09-18T19:58:58.226Z,7.96
2022-09-18T20:01:24.779Z,8.06
2022-09-18T20:03:54.805Z,8.20
2022-09-18T20:06:22.978Z,8.28
2022-09-18T20:08:50.070Z,8.02
2022-09-18T20:11:16.693Z,8.01
2022-09-18T20:13:43.317Z,6.51
2022-09-18T20:16:10.357Z,8.26
2022-09-18T20:18:37.889Z,8.26
2022-09-18T20:21:08.956Z,8.25
2022-09-18T20:23:36.227Z,8.21
2022-09-18T20:26:18.138Z,8.12
2022-09-18T20:28:44.810Z,6.94
2022-09-18T20:31:14.229Z,8.38
2022-09-18T20:33:40.949Z,7.70
2022-09-18T20:36:08.340Z,8.28
2022-09-18T20:38:36.886Z,7.65
2022-09-18T20:41:06.930Z,7.97
2022-09-18T20:43:35.831Z,8.30
2022-09-18T20:46:05.505Z,8.05
2022-09-18T20:48:36.717Z,7.19
2022-09-18T20:51:09.220Z,8.01
2022-09-18T20:53:38.302Z,7.75
2022-09-18T20:56:09.506Z,7.91
2022-09-18T20:58:36.222Z,8.12
2022-09-18T21:01:12.732Z,8.38
2022-09-18T21:03:43.092Z,8.15
2022-09-18T21:06:22.820Z,7.58
2022-09-18T21:08:50.806Z,8.05
2022-09-18T21:11:19.729Z,7.67
2022-09-18T21:13:49.181Z,7.97
2022-09-18T21:16:20.575Z,8.14
2022-09-18T21:18:48.134Z,7.67
2022-09-18T21:21:15.901Z,8.34
2022-09-18T21:23:56.200Z,8.28
2022-09-18T21:26:33.119Z,8.59
2022-09-18T21:29:12.956Z,7.98
2022-09-18T21:31:42.650Z,8.45
2022-09-18T21:34:14.241Z,8.46
2022-09-18T21:36:45.388Z,7.85
2022-09-18T21:39:13.003Z,7.78
2022-09-18T21:41:40.149Z,8.32
2022-09-18T21:44:08.730Z,7.88
2022-09-18T21:46:38.854Z,8.38
2022-09-18T21:49:06.886Z,8.20
2022-09-18T21:51:37.353Z,8.15
2022-09-18T21:54:05.576Z,7.95
2022-09-18T21:56:32.551Z,8.21
2022-09-18T21:58:59.980Z,7.96
2022-09-18T22:01:28.587Z,8.14
2022-09-18T22:03:56.394Z,8.26
2022-09-18T22:06:27.447Z,8.19
2022-09-18T22:08:56.627Z,8.37
2022-09-18T22:11:29.594Z,8.02
2022-09-18T22:14:00.997Z,7.55
2022-09-18T22:16:28.896Z,8.15
2022-09-18T22:18:55.661Z,8.22
2022-09-18T22:21:24.753Z,8.36
2022-09-18T22:23:53.283Z,8.08
2022-09-18T22:26:25.059Z,8.01
2022-09-18T22:28:56.549Z,8.27
2022-09-18T22:31:24.104Z,8.29
2022-09-18T22:33:57.697Z,8.44
2022-09-18T22:36:25.134Z,8.25
2022-09-18T22:38:52.302Z,8.18
2022-09-18T22:41:18.988Z,8.41
2022-09-18T22:43:45.587Z,8.35
2022-09-18T22:46:24.077Z,8.32
2022-09-18T22:48:51.478Z,7.61
2022-09-18T22:51:19.234Z,8.70
2022-09-18T22:54:04.840Z,8.36
2022-09-18T22:56:31.454Z,8.61
2022-09-18T22:58:58.186Z,8.26
2022-09-18T23:01:27.615Z,7.19
2022-09-18T23:03:56.756Z,7.39
2022-09-18T23:06:25.570Z,6.97
2022-09-18T23:08:52.922Z,8.61
2022-09-18T23:11:24.301Z,8.53
2022-09-18T23:13:52.980Z,7.34
2022-09-18T23:16:19.910Z,8.64
2022-09-18T23:18:54.324Z,8.57
2022-09-18T23:21:21.863Z,8.67
2022-09-18T23:23:49.013Z,8.60
2022-09-18T23:26:23.280Z,8.40
2022-09-18T23:28:51.090Z,8.54
2022-09-18T23:31:24.128Z,8.15
2022-09-18T23:33:52.611Z,8.47
2022-09-18T23:36:30.038Z,8.27
2022-09-18T23:38:58.223Z,7.08
2022-09-18T23:41:24.924Z,8.53
2022-09-18T23:43:52.392Z,8.44
2022-09-18T23:46:19.167Z,8.57
2022-09-18T23:48:47.442Z,8.38
2022-09-18T23:51:14.103Z,8.64
2022-09-18T23:53:41.792Z,8.56
2022-09-18T23:56:12.398Z,7.81
2022-09-18T23:58:39.048Z,8.50
